Terminal Aerodrome Forecast
Issued by NWS

Home | Current Version | Previous Version | Text Only | Print | Product List | Glossary On
Versions: 1 2 3 4 5 6 7 8 9 10 11 12
445
FTUS41 KBTV 301740
TAFRUT
TAF
KRUT 301740Z 3018/0118 33008KT P6SM SKC
     FM010000 07004KT P6SM SCT200
     FM010500 09004KT P6SM BKN100
     FM011200 15004KT 3SM -RA BR OVC045
      AMD LTD TO CLD VIS AND WIND=

USA.gov is the U.S. government's official web portal to all federal, state and local government web resources and services.